Time;durP1;ratioP1;P1;durP2;ratioP2;P2;SDS_P1;SDS_P2;PMS_P1;PMS_P2;Temp;Humidity;BMP_temperature;BMP_pressure;BME280_temperature;BME280_humidity;BME280_pressure;Samples;Min_cycle;Max_cycle;Signal;HPM_P1;HPM_P2
2022/09/12 00:00:27;;;;;;;39.07;20.97;;;13.20;99.90;;;;;;5054940;28;20263;-52
2022/09/12 00:02:55;;;;;;;46.77;22.10;;;13.20;99.90;;;;;;5055077;28;20209;-53
2022/09/12 00:05:22;;;;;;;41.47;21.87;;;13.20;99.90;;;;;;5055382;28;20237;-52
2022/09/12 00:07:48;;;;;;;38.10;21.53;;;13.20;99.90;;;;;;5057406;28;20233;-57
2022/09/12 00:10:17;;;;;;;47.23;21.17;;;13.20;99.90;;;;;;5063175;28;20221;-57
2022/09/12 00:12:43;;;;;;;39.87;20.33;;;13.10;99.90;;;;;;5061515;28;20214;-55
2022/09/12 00:15:11;;;;;;;39.33;19.20;;;13.20;99.90;;;;;;5055187;28;20652;-55
2022/09/12 00:17:39;;;;;;;41.80;19.33;;;13.20;99.90;;;;;;5054450;28;20206;-52
2022/09/12 00:20:08;;;;;;;42.90;21.43;;;13.20;99.90;;;;;;5054538;28;20206;-53
2022/09/12 00:22:35;;;;;;;37.67;19.30;;;13.10;99.90;;;;;;5054447;28;20254;-55
2022/09/12 00:25:02;;;;;;;45.83;20.00;;;13.10;99.90;;;;;;5054235;28;20711;-55
2022/09/12 00:27:31;;;;;;;49.50;19.60;;;13.10;99.90;;;;;;5054205;28;20213;-54
2022/09/12 00:29:57;;;;;;;42.63;18.83;;;13.10;99.90;;;;;;5054086;28;20699;-55
2022/09/12 00:32:24;;;;;;;41.40;19.53;;;13.10;99.90;;;;;;5054165;28;20210;-55
2022/09/12 00:34:51;;;;;;;41.40;19.17;;;13.10;99.90;;;;;;5054148;28;20222;-55
2022/09/12 00:37:17;;;;;;;42.83;18.17;;;13.10;99.90;;;;;;5053687;28;20213;-55
2022/09/12 00:39:44;;;;;;;35.13;17.67;;;13.10;99.90;;;;;;5054355;28;20255;-55
2022/09/12 00:42:12;;;;;;;35.30;18.33;;;13.00;99.90;;;;;;5054088;28;20217;-53
2022/09/12 00:44:45;;;;;;;36.67;18.23;;;13.10;99.90;;;;;;5052897;28;20216;-55
2022/09/12 00:47:20;;;;;;;35.27;17.43;;;13.10;99.90;;;;;;5053741;28;20263;-54
2022/09/12 00:49:51;;;;;;;31.83;17.53;;;13.00;99.90;;;;;;5053778;28;20209;-55
2022/09/12 00:52:24;;;;;;;36.90;18.37;;;13.00;99.90;;;;;;5054111;28;20259;-56
2022/09/12 00:54:56;;;;;;;36.93;17.60;;;12.90;99.90;;;;;;5053862;28;20225;-55
2022/09/12 00:57:28;;;;;;;37.17;18.50;;;13.00;99.90;;;;;;5053585;28;20209;-53
2022/09/12 01:00:01;;;;;;;30.43;17.27;;;12.90;99.90;;;;;;5053810;28;20201;-56
2022/09/12 01:02:28;;;;;;;33.53;16.17;;;12.90;99.90;;;;;;5053721;28;20281;-54
2022/09/12 01:04:55;;;;;;;33.53;16.77;;;12.90;99.90;;;;;;5053650;28;20676;-54
2022/09/12 01:07:22;;;;;;;35.90;16.67;;;12.90;99.90;;;;;;5053696;28;20296;-56
2022/09/12 01:09:50;;;;;;;32.67;15.90;;;12.90;99.90;;;;;;5053461;28;20209;-56
2022/09/12 01:12:17;;;;;;;28.97;15.20;;;12.90;99.90;;;;;;5053564;28;20275;-55
2022/09/12 01:14:44;;;;;;;32.13;15.53;;;12.90;99.90;;;;;;5053017;28;20707;-52
2022/09/12 01:17:14;;;;;;;26.97;14.53;;;12.90;99.90;;;;;;5053559;28;20263;-49
2022/09/12 01:20:16;;;;;;;28.97;15.27;;;12.90;99.90;;;;;;5053644;28;20205;-50
2022/09/12 01:23:30;;;;;;;25.03;14.20;;;12.90;99.90;;;;;;5053654;28;20234;-51
2022/09/12 01:26:09;;;;;;;26.87;14.50;;;12.90;99.90;;;;;;5040419;28;20229;-55
2022/09/12 01:29:08;;;;;;;26.23;13.60;;;12.90;99.90;;;;;;5053697;28;20259;-52
2022/09/12 01:31:43;;;;;;;28.33;14.10;;;12.90;99.90;;;;;;5053376;28;20244;-50
2022/09/12 01:34:18;;;;;;;24.00;13.27;;;12.90;99.90;;;;;;5053160;28;20213;-49
2022/09/12 01:36:56;;;;;;;23.80;12.83;;;12.90;99.90;;;;;;5053103;28;20229;-49
2022/09/12 01:39:30;;;;;;;27.00;13.33;;;12.90;99.90;;;;;;5052678;28;20237;-55
2022/09/12 01:42:09;;;;;;;20.30;12.20;;;12.90;99.90;;;;;;5052909;28;20255;-49
2022/09/12 01:44:43;;;;;;;18.13;11.37;;;12.90;99.90;;;;;;5052941;28;20307;-51
2022/09/12 01:47:16;;;;;;;21.73;12.10;;;12.90;99.90;;;;;;5052720;28;20216;-50
2022/09/12 01:49:50;;;;;;;21.43;11.87;;;12.90;99.90;;;;;;5052964;28;20209;-53
2022/09/12 01:52:22;;;;;;;17.37;11.63;;;12.90;99.90;;;;;;5052887;28;20209;-52
2022/09/12 01:54:53;;;;;;;17.40;10.20;;;12.90;99.90;;;;;;5052421;28;20716;-54
2022/09/12 01:57:25;;;;;;;16.53;10.80;;;12.90;99.90;;;;;;5052510;28;20264;-58
2022/09/12 01:59:58;;;;;;;18.23;10.77;;;13.00;99.90;;;;;;5052630;28;20209;-51
2022/09/12 02:02:32;;;;;;;19.30;11.90;;;12.90;99.90;;;;;;5052582;28;20209;-55
2022/09/12 02:05:04;;;;;;;21.17;11.27;;;12.90;99.90;;;;;;5052663;28;20578;-49
2022/09/12 02:07:36;;;;;;;21.00;12.00;;;12.90;99.90;;;;;;5052455;28;20205;-54
2022/09/12 02:10:07;;;;;;;21.57;11.30;;;12.90;99.90;;;;;;5053118;28;20271;-53
2022/09/12 02:12:39;;;;;;;17.03;11.27;;;12.90;99.90;;;;;;5052930;28;20201;-55
2022/09/12 02:15:09;;;;;;;22.63;11.13;;;12.90;99.90;;;;;;5053019;28;20234;-54
2022/09/12 02:17:41;;;;;;;17.17;11.13;;;12.90;99.90;;;;;;5053220;28;20576;-57
2022/09/12 02:20:14;;;;;;;17.47;10.70;;;12.90;99.90;;;;;;5052981;28;20259;-54
2022/09/12 02:22:43;;;;;;;21.43;11.27;;;12.90;99.90;;;;;;5052650;28;20209;-54
2022/09/12 02:25:13;;;;;;;20.13;11.10;;;12.90;99.90;;;;;;5052774;28;20225;-54
2022/09/12 02:27:44;;;;;;;21.40;11.47;;;12.90;99.90;;;;;;5052008;28;20707;-50
2022/09/12 02:30:13;;;;;;;22.33;12.03;;;12.90;99.90;;;;;;5052061;28;20238;-51
2022/09/12 02:32:51;;;;;;;19.87;12.13;;;12.90;99.90;;;;;;5052185;28;20240;-49
2022/09/12 02:35:25;;;;;;;21.63;11.57;;;12.90;99.90;;;;;;5051993;28;20668;-50
2022/09/12 02:37:59;;;;;;;20.37;11.40;;;12.90;99.90;;;;;;5051512;28;20213;-54
2022/09/12 02:40:26;;;;;;;16.33;11.07;;;12.90;99.90;;;;;;5052149;28;20632;-53
2022/09/12 02:42:53;;;;;;;16.07;10.30;;;12.90;99.90;;;;;;5051986;28;20201;-53
2022/09/12 02:45:21;;;;;;;18.47;11.13;;;12.80;99.90;;;;;;5051845;28;20232;-53
2022/09/12 02:47:52;;;;;;;18.70;11.73;;;12.90;99.90;;;;;;5051574;28;20202;-56
2022/09/12 02:50:20;;;;;;;18.30;11.07;;;12.90;99.90;;;;;;5051780;28;20209;-52
2022/09/12 02:52:47;;;;;;;19.00;10.77;;;12.90;99.90;;;;;;5051709;28;20255;-53
2022/09/12 02:55:14;;;;;;;21.13;12.97;;;12.90;99.90;;;;;;5051751;28;20255;-49
2022/09/12 02:57:41;;;;;;;21.00;11.53;;;12.90;99.90;;;;;;5051675;28;20202;-54
2022/09/12 03:00:09;;;;;;;20.83;12.07;;;12.90;99.90;;;;;;5051640;28;20676;-53
2022/09/12 03:02:54;;;;;;;21.57;11.60;;;12.90;99.90;;;;;;5051782;28;20205;-52
2022/09/12 03:05:30;;;;;;;17.70;11.67;;;12.90;99.90;;;;;;5051623;28;20237;-53
2022/09/12 03:08:08;;;;;;;19.20;11.00;;;12.90;99.90;;;;;;5053430;28;20205;-53
2022/09/12 03:10:45;;;;;;;20.87;11.60;;;12.90;99.90;;;;;;5055803;28;20707;-50
2022/09/12 03:13:21;;;;;;;18.10;10.57;;;12.90;99.90;;;;;;5055719;28;20205;-53
2022/09/12 03:15:59;;;;;;;18.33;10.87;;;12.90;99.90;;;;;;5055571;28;20316;-51
2022/09/12 03:18:40;;;;;;;20.80;10.73;;;12.90;99.90;;;;;;5055855;28;20205;-49
2022/09/12 03:21:17;;;;;;;21.73;11.57;;;13.00;99.90;;;;;;5055657;28;20292;-52
2022/09/12 03:23:53;;;;;;;22.10;11.27;;;13.00;99.90;;;;;;5055575;28;20581;-53
2022/09/12 03:26:26;;;;;;;19.87;10.90;;;13.00;99.90;;;;;;5055457;28;20358;-52
2022/09/12 03:28:55;;;;;;;16.17;10.63;;;13.00;99.90;;;;;;5055564;28;20206;-50
2022/09/12 03:31:22;;;;;;;18.63;10.97;;;13.00;99.90;;;;;;5055412;28;20635;-48
2022/09/12 03:33:49;;;;;;;19.27;10.80;;;13.00;99.90;;;;;;5055326;28;20213;-48
2022/09/12 03:36:21;;;;;;;18.17;10.83;;;13.00;99.90;;;;;;5057047;28;20226;-54
2022/09/12 03:38:47;;;;;;;19.57;11.10;;;13.00;99.90;;;;;;5056352;28;20275;-55
2022/09/12 03:41:14;;;;;;;17.60;11.20;;;13.00;99.90;;;;;;5055751;28;20202;-53
2022/09/12 03:43:41;;;;;;;17.80;10.97;;;12.90;99.90;;;;;;5055534;28;20213;-53
2022/09/12 03:46:08;;;;;;;17.57;11.80;;;12.90;99.90;;;;;;5054957;28;20283;-52
2022/09/12 03:48:34;;;;;;;18.00;11.13;;;13.00;99.90;;;;;;5055023;28;20214;-49
2022/09/12 03:51:01;;;;;;;17.70;11.40;;;13.00;99.90;;;;;;5054594;28;20217;-53
2022/09/12 03:53:30;;;;;;;15.93;10.27;;;13.00;99.90;;;;;;5055216;28;20210;-50
2022/09/12 03:55:56;;;;;;;16.20;10.97;;;12.90;99.90;;;;;;5054790;28;20290;-51
2022/09/12 03:58:23;;;;;;;18.17;11.13;;;13.00;99.90;;;;;;5054988;28;20205;-52
2022/09/12 04:00:50;;;;;;;23.17;11.20;;;12.90;99.90;;;;;;5054935;28;20212;-54
2022/09/12 04:03:18;;;;;;;15.20;10.70;;;12.90;99.90;;;;;;5055027;28;20210;-51
2022/09/12 04:05:45;;;;;;;16.73;10.57;;;12.90;99.90;;;;;;5054524;28;20244;-51
2022/09/12 04:08:11;;;;;;;18.00;11.47;;;12.90;99.90;;;;;;5054773;28;20296;-48
2022/09/12 04:10:40;;;;;;;17.17;10.30;;;12.90;99.90;;;;;;5054730;28;20616;-51
2022/09/12 04:13:06;;;;;;;18.27;11.43;;;12.80;99.90;;;;;;5054697;28;20206;-55
2022/09/12 04:15:33;;;;;;;20.23;10.77;;;12.90;99.90;;;;;;5054265;28;20221;-51
2022/09/12 04:18:00;;;;;;;15.83;10.90;;;12.90;99.90;;;;;;5054228;28;20217;-52
2022/09/12 04:20:26;;;;;;;17.17;10.77;;;12.80;99.90;;;;;;5054646;28;20206;-53
2022/09/12 04:22:53;;;;;;;20.80;11.83;;;12.80;99.90;;;;;;5054641;28;20206;-49
2022/09/12 04:25:20;;;;;;;21.40;11.63;;;12.80;99.90;;;;;;5054563;28;20226;-56
2022/09/12 04:27:47;;;;;;;18.20;12.13;;;12.80;99.90;;;;;;5054188;28;20206;-53
2022/09/12 04:30:14;;;;;;;17.23;12.20;;;12.80;99.90;;;;;;5054283;28;20220;-52
2022/09/12 04:32:41;;;;;;;17.00;10.93;;;12.80;99.90;;;;;;5054367;28;20221;-52
2022/09/12 04:35:08;;;;;;;20.30;11.57;;;12.80;99.90;;;;;;5054376;28;20226;-56
2022/09/12 04:37:35;;;;;;;19.03;10.87;;;12.80;99.90;;;;;;5054004;28;20210;-53
2022/09/12 04:40:01;;;;;;;22.03;11.67;;;12.80;99.90;;;;;;5054162;28;20676;-53
2022/09/12 04:42:29;;;;;;;17.73;11.40;;;12.80;99.90;;;;;;5054083;28;20206;-56
2022/09/12 04:44:57;;;;;;;22.13;12.10;;;12.80;99.90;;;;;;5053773;28;20234;-50
2022/09/12 04:47:24;;;;;;;16.00;10.60;;;12.80;99.90;;;;;;5053732;28;20206;-54
2022/09/12 04:49:51;;;;;;;16.30;10.73;;;12.80;99.90;;;;;;5054096;28;20271;-55
2022/09/12 04:52:17;;;;;;;16.63;11.10;;;12.80;99.90;;;;;;5054005;28;20230;-53
2022/09/12 04:54:44;;;;;;;16.23;10.10;;;12.80;99.90;;;;;;5052355;28;20229;-52
2022/09/12 04:57:12;;;;;;;19.90;10.67;;;12.80;99.90;;;;;;5051870;28;20202;-55
2022/09/12 04:59:38;;;;;;;16.47;10.63;;;12.80;99.90;;;;;;5053624;28;20205;-51
2022/09/12 05:02:07;;;;;;;16.70;10.97;;;12.70;99.90;;;;;;5053202;28;20648;-54
2022/09/12 05:04:34;;;;;;;16.13;10.57;;;12.80;99.90;;;;;;5053521;28;20576;-57
2022/09/12 05:07:01;;;;;;;14.80;10.50;;;12.70;99.90;;;;;;5053221;28;20209;-55
2022/09/12 05:09:28;;;;;;;15.80;10.27;;;12.80;99.90;;;;;;5053106;28;20213;-52
2022/09/12 05:11:54;;;;;;;16.80;10.10;;;12.70;99.90;;;;;;5053284;28;20222;-54
2022/09/12 05:14:21;;;;;;;15.77;10.37;;;12.70;99.90;;;;;;5052816;28;20632;-61
2022/09/12 05:16:48;;;;;;;17.40;11.83;;;12.80;99.90;;;;;;5052842;28;20206;-61
2022/09/12 05:19:17;;;;;;;15.00;10.33;;;12.80;99.90;;;;;;5052980;28;20205;-62
2022/09/12 05:21:43;;;;;;;16.13;10.83;;;12.80;99.90;;;;;;5053212;28;20670;-62
2022/09/12 05:24:11;;;;;;;19.00;11.97;;;12.80;99.90;;;;;;5052674;28;20412;-62
2022/09/12 05:26:38;;;;;;;17.50;10.60;;;12.80;99.90;;;;;;5052442;28;20283;-61
2022/09/12 05:29:05;;;;;;;15.97;9.80;;;12.80;99.90;;;;;;5052734;28;20287;-60
2022/09/12 05:31:32;;;;;;;20.40;10.63;;;12.90;99.90;;;;;;5052441;28;20218;-61
2022/09/12 05:33:59;;;;;;;18.20;10.37;;;12.90;99.90;;;;;;5053167;28;20209;-56
2022/09/12 05:36:28;;;;;;;16.67;10.90;;;12.90;99.90;;;;;;5052207;28;20226;-55
2022/09/12 05:38:55;;;;;;;20.00;10.97;;;13.00;99.90;;;;;;5052835;28;20584;-51
2022/09/12 05:41:24;;;;;;;18.50;10.60;;;13.00;99.90;;;;;;5052224;28;20672;-55
2022/09/12 05:43:52;;;;;;;16.90;10.53;;;13.10;99.90;;;;;;5052828;28;20206;-55
2022/09/12 05:46:21;;;;;;;15.70;10.13;;;13.10;99.90;;;;;;5052109;28;20310;-51
2022/09/12 05:48:49;;;;;;;13.70;10.07;;;13.10;99.90;;;;;;5052480;28;20206;-56
2022/09/12 05:51:19;;;;;;;16.80;9.10;;;13.20;99.90;;;;;;5052265;28;20205;-50
2022/09/12 05:53:48;;;;;;;15.17;9.37;;;13.20;99.90;;;;;;5052520;28;20209;-56
2022/09/12 05:56:17;;;;;;;15.93;10.47;;;13.30;99.90;;;;;;5051851;28;20230;-53
2022/09/12 05:58:46;;;;;;;14.77;9.47;;;13.40;99.90;;;;;;5052419;28;20262;-55
2022/09/12 06:01:15;;;;;;;14.00;9.80;;;13.40;99.90;;;;;;5052219;28;20232;-56
2022/09/12 06:03:43;;;;;;;14.13;9.73;;;13.50;99.90;;;;;;5052139;28;20209;-50
2022/09/12 06:06:12;;;;;;;13.60;9.63;;;13.50;99.90;;;;;;5051928;28;20609;-51
2022/09/12 06:08:40;;;;;;;13.00;8.83;;;13.60;99.90;;;;;;5051650;28;20664;-56
2022/09/12 06:11:10;;;;;;;13.03;8.60;;;13.70;99.90;;;;;;5052458;28;20685;-54
2022/09/12 06:13:38;;;;;;;11.43;8.50;;;13.80;99.90;;;;;;5051308;28;20288;-58
2022/09/12 06:16:07;;;;;;;11.87;8.40;;;13.90;99.90;;;;;;5051937;28;20313;-51
2022/09/12 06:18:35;;;;;;;13.67;8.27;;;14.00;99.90;;;;;;5051684;28;20684;-58
2022/09/12 06:21:05;;;;;;;13.43;8.57;;;14.10;99.90;;;;;;5051892;28;20201;-57
2022/09/12 06:23:32;;;;;;;17.97;8.83;;;14.30;99.90;;;;;;5051533;28;20202;-53
2022/09/12 06:25:59;;;;;;;14.83;8.33;;;14.40;99.90;;;;;;5051783;28;20230;-53
2022/09/12 06:28:28;;;;;;;15.37;8.63;;;14.40;99.90;;;;;;5051670;28;20205;-54
2022/09/12 06:31:00;;;;;;;14.40;8.87;;;14.60;99.90;;;;;;5051794;28;20271;-51
2022/09/12 06:33:27;;;;;;;12.53;8.60;;;14.70;99.90;;;;;;5051582;28;20225;-56
2022/09/12 06:35:54;;;;;;;14.93;7.97;;;14.80;99.90;;;;;;5040661;28;20725;-52
2022/09/12 06:38:20;;;;;;;11.27;7.87;;;14.80;99.90;;;;;;5049813;28;20286;-49
2022/09/12 06:40:47;;;;;;;13.30;7.97;;;14.90;99.90;;;;;;5050356;28;20262;-51
2022/09/12 06:43:14;;;;;;;13.87;8.47;;;14.90;99.90;;;;;;5050351;28;20201;-58
2022/09/12 06:45:49;;;;;;;12.23;7.67;;;15.00;99.90;;;;;;5050370;28;20234;-55
2022/09/12 06:48:15;;;;;;;11.17;7.40;;;15.00;98.60;;;;;;5050942;28;20216;-51
2022/09/12 06:50:42;;;;;;;11.07;7.43;;;15.10;97.30;;;;;;5050949;28;20209;-56
2022/09/12 06:53:09;;;;;;;16.63;7.73;;;15.10;99.90;;;;;;5051000;28;20272;-55
2022/09/12 06:55:36;;;;;;;11.80;7.20;;;15.20;99.90;;;;;;5050980;28;20599;-59
2022/09/12 06:58:03;;;;;;;13.53;8.20;;;15.20;96.10;;;;;;5050295;28;20210;-56
2022/09/12 07:00:31;;;;;;;11.33;7.53;;;15.30;92.30;;;;;;5050840;28;20232;-49
2022/09/12 07:02:59;;;;;;;12.93;7.67;;;15.40;78.20;;;;;;5048381;28;20570;-53
2022/09/12 07:05:25;;;;;;;12.33;7.83;;;15.50;75.10;;;;;;5051340;28;20280;-59
2022/09/12 07:07:52;;;;;;;13.53;7.97;;;15.60;61.40;;;;;;5052880;28;20205;-59
2022/09/12 07:10:19;;;;;;;11.53;7.30;;;15.70;54.50;;;;;;5052916;28;20205;-53
2022/09/12 07:12:46;;;;;;;9.57;6.93;;;15.80;47.50;;;;;;5050528;28;20226;-56
2022/09/12 07:15:13;;;;;;;10.30;6.83;;;15.90;26.10;;;;;;5050179;28;20225;-53
2022/09/12 07:17:40;;;;;;;10.57;6.80;;;16.00;24.70;;;;;;5049722;28;20218;-53
2022/09/12 07:20:08;;;;;;;9.37;6.67;;;16.20;21.60;;;;;;5050682;28;20209;-56
2022/09/12 07:22:35;;;;;;;11.07;7.17;;;16.30;14.00;;;;;;5050919;28;20201;-55
2022/09/12 07:25:02;;;;;;;12.77;8.00;;;16.40;21.80;;;;;;5050232;28;20579;-54
2022/09/12 07:27:28;;;;;;;17.97;10.30;;;16.50;1.00;;;;;;5050276;28;20205;-51
2022/09/12 07:29:55;;;;;;;11.60;7.43;;;16.60;1.00;;;;;;5050404;28;20240;-55
2022/09/12 07:32:22;;;;;;;9.67;6.43;;;16.60;1.00;;;;;;5050748;28;20279;-52
2022/09/12 07:34:49;;;;;;;9.10;6.67;;;16.70;1.00;;;;;;5050957;28;20229;-59
2022/09/12 07:37:17;;;;;;;12.07;6.80;;;16.80;1.00;;;;;;5049897;28;20209;-59
2022/09/12 07:39:44;;;;;;;10.67;6.57;;;16.90;1.00;;;;;;5050732;28;20210;-57
2022/09/12 07:42:11;;;;;;;10.90;6.70;;;17.00;1.00;;;;;;5050032;28;20198;-59
2022/09/12 07:44:37;;;;;;;12.23;7.07;;;17.00;1.00;;;;;;5050889;28;20210;-59
2022/09/12 07:47:04;;;;;;;11.90;7.27;;;17.10;1.00;;;;;;5050062;28;20267;-54
2022/09/12 07:49:31;;;;;;;11.73;7.00;;;17.20;1.00;;;;;;5050588;28;20641;-59
2022/09/12 07:51:58;;;;;;;10.20;6.97;;;17.20;1.00;;;;;;5050243;28;20263;-59
2022/09/12 07:54:26;;;;;;;9.80;6.60;;;17.30;1.00;;;;;;5052682;28;20271;-62
2022/09/12 07:56:53;;;;;;;11.03;6.50;;;17.30;1.00;;;;;;5053903;28;20213;-62
2022/09/12 07:59:20;;;;;;;10.47;6.90;;;17.40;1.00;;;;;;5053910;28;20213;-61
2022/09/12 08:01:46;;;;;;;9.73;6.53;;;17.40;1.00;;;;;;5054285;28;20210;-63
2022/09/12 08:04:13;;;;;;;11.43;7.53;;;17.50;1.00;;;;;;5053875;28;20212;-61
2022/09/12 08:06:39;;;;;;;9.60;6.90;;;17.60;1.00;;;;;;5053605;28;20234;-62
2022/09/12 08:09:07;;;;;;;11.20;7.30;;;17.60;1.00;;;;;;5053252;28;20216;-62
2022/09/12 08:11:35;;;;;;;11.73;6.17;;;17.80;1.00;;;;;;5053842;28;20260;-62
2022/09/12 08:14:04;;;;;;;8.70;7.07;;;17.90;1.00;;;;;;5053802;28;20237;-62
2022/09/12 08:16:32;;;;;;;9.87;6.37;;;18.00;1.00;;;;;;5053331;28;20241;-63
2022/09/12 08:19:00;;;;;;;9.83;6.67;;;18.10;1.00;;;;;;5053586;28;20654;-62
2022/09/12 08:21:29;;;;;;;11.77;7.37;;;18.20;1.00;;;;;;5053612;28;20291;-63
2022/09/12 08:23:57;;;;;;;10.20;6.60;;;18.30;1.00;;;;;;5053607;28;20288;-67
2022/09/12 08:26:24;;;;;;;11.03;7.53;;;18.30;99.90;;;;;;5053221;28;20272;-67
2022/09/12 08:28:53;;;;;;;11.03;6.90;;;18.40;99.90;;;;;;5053631;28;20217;-67
2022/09/12 08:31:22;;;;;;;10.77;7.97;;;18.40;99.90;;;;;;5053404;28;20259;-66
2022/09/12 08:33:49;;;;;;;13.87;7.67;;;18.50;99.90;;;;;;5053710;28;20240;-66
2022/09/12 08:36:17;;;;;;;10.97;7.03;;;18.50;99.90;;;;;;5053340;28;20225;-67
2022/09/12 08:38:46;;;;;;;11.30;7.60;;;18.60;99.90;;;;;;5052947;28;20214;-62
2022/09/12 08:41:23;;;;;;;11.83;7.43;;;18.60;99.90;;;;;;5053623;28;20202;-59
2022/09/12 08:44:11;;;;;;;9.47;6.50;;;18.70;43.10;;;;;;5053180;28;20202;-61
2022/09/12 08:46:43;;;;;;;9.97;6.60;;;18.80;99.90;;;;;;5053236;28;20226;-61
2022/09/12 08:49:13;;;;;;;11.10;6.70;;;18.80;99.90;;;;;;5052532;28;20206;-61
2022/09/12 08:51:40;;;;;;;7.63;6.43;;;18.90;99.30;;;;;;5052976;28;20263;-62
2022/09/12 08:54:18;;;;;;;11.13;7.33;;;19.00;99.90;;;;;;5053058;28;20287;-62
2022/09/12 08:56:46;;;;;;;11.13;7.23;;;19.10;19.20;;;;;;5053053;28;20229;-62
2022/09/12 08:59:14;;;;;;;9.30;6.60;;;19.10;40.00;;;;;;5052293;28;20210;-61
2022/09/12 09:01:44;;;;;;;12.87;7.60;;;19.20;74.10;;;;;;5053247;28;20611;-61
2022/09/12 09:04:30;;;;;;;9.57;6.67;;;19.20;41.20;;;;;;5053143;28;20234;-60
2022/09/12 09:07:33;;;;;;;8.63;6.43;;;19.30;7.70;;;;;;5051828;28;20209;-60
2022/09/12 09:10:24;;;;;;;8.23;6.10;;;19.30;74.50;;;;;;5053044;28;20205;-60
2022/09/12 09:12:59;;;;;;;9.63;6.43;;;19.40;1.00;;;;;;5052770;28;20279;-63
2022/09/12 09:15:44;;;;;;;10.37;6.60;;;19.50;1.00;;;;;;5052780;28;20312;-62
2022/09/12 09:18:17;;;;;;;11.83;5.80;;;19.50;1.00;;;;;;5051952;28;20209;-65
2022/09/12 09:20:49;;;;;;;6.80;5.73;;;19.60;40.20;;;;;;5052973;28;20209;-67
2022/09/12 09:23:22;;;;;;;7.77;5.57;;;19.70;99.90;;;;;;5052369;28;20206;-67
2022/09/12 09:25:53;;;;;;;7.83;5.90;;;19.90;1.00;;;;;;5052818;28;20232;-66
2022/09/12 09:28:23;;;;;;;7.47;5.67;;;20.10;99.90;;;;;;5051923;28;20563;-66
2022/09/12 09:30:52;;;;;;;6.93;5.30;;;20.10;1.00;;;;;;5052778;28;20209;-66
2022/09/12 09:33:22;;;;;;;8.47;5.50;;;20.00;1.00;;;;;;5052350;28;20225;-66
2022/09/12 09:35:56;;;;;;;7.70;5.90;;;20.10;1.00;;;;;;5052593;28;20229;-67
2022/09/12 09:38:27;;;;;;;7.10;5.90;;;20.10;71.50;;;;;;5051932;28;20210;-65
2022/09/12 09:41:14;;;;;;;10.77;6.73;;;20.10;99.90;;;;;;5052161;28;20201;-66
2022/09/12 09:43:41;;;;;;;14.50;7.40;;;19.90;1.00;;;;;;5052412;28;20251;-65
2022/09/12 09:46:10;;;;;;;10.80;6.40;;;19.90;99.90;;;;;;5051715;28;20230;-66
2022/09/12 09:48:40;;;;;;;8.60;5.47;;;19.80;99.90;;;;;;5051914;28;20284;-67
2022/09/12 09:51:08;;;;;;;8.37;5.13;;;19.90;1.00;;;;;;5051794;28;20630;-66
2022/09/12 09:53:40;;;;;;;7.93;5.43;;;20.10;99.90;;;;;;5051897;28;20229;-62
2022/09/12 09:56:12;;;;;;;6.57;5.17;;;20.40;87.00;;;;;;5051504;28;20232;-61
2022/09/12 09:58:40;;;;;;;6.87;4.90;;;20.60;1.00;;;;;;5051916;28;20227;-63
2022/09/12 10:01:15;;;;;;;4.80;4.03;;;20.60;1.00;;;;;;5051358;28;20405;-62
2022/09/12 10:03:49;;;;;;;6.23;3.93;;;20.80;99.90;;;;;;5051929;28;20216;-63
2022/09/12 10:06:31;;;;;;;7.23;3.97;;;20.90;1.00;;;;;;5051553;28;20328;-62
2022/09/12 10:09:08;;;;;;;4.43;3.60;;;21.00;1.00;;;;;;5051729;28;20343;-61
2022/09/12 10:11:36;;;;;;;3.10;2.80;;;20.80;99.90;;;;;;5051847;28;20209;-66
2022/09/12 10:14:03;;;;;;;3.20;2.90;;;20.60;99.90;;;;;;5050909;28;20275;-62
2022/09/12 10:16:33;;;;;;;7.70;4.93;;;20.80;99.90;;;;;;5051249;28;20230;-63
2022/09/12 10:19:01;;;;;;;4.83;3.90;;;21.00;1.00;;;;;;5051041;28;20263;-64
2022/09/12 10:21:32;;;;;;;3.90;2.90;;;21.20;1.00;;;;;;5051916;28;20210;-63
2022/09/12 10:24:03;;;;;;;5.13;3.00;;;21.40;1.00;;;;;;5051337;28;20296;-62
2022/09/12 10:26:35;;;;;;;3.97;2.97;;;21.40;99.90;;;;;;5051265;28;20295;-61
2022/09/12 10:29:09;;;;;;;5.07;3.10;;;21.40;99.90;;;;;;5050700;28;20214;-61
2022/09/12 10:31:44;;;;;;;4.93;2.90;;;21.50;99.90;;;;;;5051667;28;20259;-62
2022/09/12 10:34:22;;;;;;;3.97;2.60;;;21.60;99.90;;;;;;5051538;28;20221;-61
2022/09/12 10:36:53;;;;;;;4.03;2.57;;;21.70;99.90;;;;;;5051759;28;20210;-61
2022/09/12 10:39:21;;;;;;;4.13;2.90;;;21.80;99.90;;;;;;5052646;28;20590;-61
2022/09/12 10:41:47;;;;;;;4.53;2.77;;;21.90;99.90;;;;;;5053800;28;20642;-63
2022/09/12 10:44:16;;;;;;;2.60;2.40;;;21.70;99.90;;;;;;5049952;28;20236;-68
2022/09/12 10:46:45;;;;;;;2.80;2.40;;;21.80;99.90;;;;;;5050075;28;20291;-67
2022/09/12 10:49:21;;;;;;;3.37;2.67;;;22.00;99.90;;;;;;5051140;28;20210;-67
2022/09/12 10:51:49;;;;;;;5.70;2.73;;;22.20;99.90;;;;;;5050732;28;20208;-67
2022/09/12 10:54:18;;;;;;;3.07;2.50;;;22.00;99.90;;;;;;5051267;28;20241;-67
2022/09/12 10:57:03;;;;;;;3.77;2.60;;;21.90;99.90;;;;;;5050817;28;20239;-66
2022/09/12 10:59:40;;;;;;;3.67;2.40;;;22.00;99.90;;;;;;5053365;28;20205;-66
2022/09/12 11:02:21;;;;;;;3.03;2.73;;;22.10;99.90;;;;;;5033790;28;20206;-68
2022/09/12 11:05:00;;;;;;;5.37;2.70;;;22.20;99.90;;;;;;5033451;28;20272;-63
2022/09/12 11:07:45;;;;;;;4.50;2.53;;;22.10;99.90;;;;;;5032229;28;20210;-62
2022/09/12 11:10:36;;;;;;;3.37;2.60;;;22.20;99.90;;;;;;5031271;28;20253;-59
2022/09/12 11:13:21;;;;;;;3.63;2.73;;;22.20;99.90;;;;;;5031127;28;20207;-60
2022/09/12 11:16:09;;;;;;;5.70;2.67;;;22.20;99.90;;;;;;5048876;28;20708;-61
2022/09/12 11:18:52;;;;;;;3.43;2.87;;;22.40;99.90;;;;;;5050674;28;20209;-57
2022/09/12 11:21:30;;;;;;;2.80;2.47;;;22.30;99.90;;;;;;5050496;28;20738;-58
2022/09/12 11:24:36;;;;;;;3.67;2.33;;;22.40;99.90;;;;;;5050910;28;20201;-61
2022/09/12 11:27:14;;;;;;;2.63;2.20;;;22.60;99.90;;;;;;5050068;28;20668;-61
2022/09/12 11:29:49;;;;;;;5.73;2.30;;;22.70;99.90;;;;;;5054029;28;20214;-61
2022/09/12 11:32:46;;;;;;;6.07;2.20;;;22.90;99.90;;;;;;5054663;28;20567;-61
2022/09/12 11:35:20;;;;;;;3.23;2.50;;;23.10;99.90;;;;;;5054422;28;20769;-66
2022/09/12 11:38:23;;;;;;;3.13;2.37;;;23.00;99.90;;;;;;5045505;28;20202;-67
2022/09/12 11:40:54;;;;;;;4.43;2.60;;;22.80;99.90;;;;;;5054545;28;20201;-67
2022/09/12 11:43:34;;;;;;;3.17;2.20;;;23.00;99.90;;;;;;5054139;28;20202;-65
2022/09/12 11:46:12;;;;;;;2.97;2.40;;;23.10;99.90;;;;;;5054271;28;20755;-67
2022/09/12 11:48:45;;;;;;;3.50;2.50;;;23.00;99.90;;;;;;5053628;28;20585;-62
2022/09/12 11:51:18;;;;;;;2.60;2.40;;;23.10;99.90;;;;;;5054767;28;20214;-62
2022/09/12 11:53:53;;;;;;;3.20;2.20;;;23.10;99.90;;;;;;5053952;28;20700;-61
2022/09/12 11:56:20;;;;;;;2.33;2.13;;;23.10;99.90;;;;;;5053964;28;20283;-60
2022/09/12 11:58:53;;;;;;;2.60;2.40;;;23.00;99.90;;;;;;5053766;28;20280;-60
2022/09/12 12:01:24;;;;;;;2.87;2.47;;;22.90;99.90;;;;;;5054264;28;20202;-61
2022/09/12 12:03:54;;;;;;;3.23;2.43;;;22.80;99.90;;;;;;5054084;28;20206;-61
2022/09/12 12:06:29;;;;;;;3.47;2.60;;;22.80;99.90;;;;;;5053803;28;20328;-66
2022/09/12 12:08:57;;;;;;;3.37;2.50;;;23.00;99.90;;;;;;5053834;28;20205;-66
2022/09/12 12:11:30;;;;;;;4.83;3.30;;;23.20;99.90;;;;;;5053892;28;20206;-65
2022/09/12 12:13:59;;;;;;;2.50;2.03;;;23.40;99.90;;;;;;5054149;28;20375;-66
2022/09/12 12:16:28;;;;;;;2.47;2.27;;;23.50;99.90;;;;;;5053265;28;20618;-66
2022/09/12 12:18:57;;;;;;;4.50;2.63;;;23.70;99.90;;;;;;5053528;28;20217;-66
2022/09/12 12:21:35;;;;;;;2.90;2.57;;;23.90;99.90;;;;;;5053540;28;20197;-66
2022/09/12 12:24:11;;;;;;;2.73;2.27;;;23.70;99.90;;;;;;5053994;28;20205;-61
2022/09/12 12:26:56;;;;;;;4.37;2.20;;;23.60;99.90;;;;;;5053256;28;20730;-62
2022/09/12 12:29:43;;;;;;;3.37;2.47;;;23.60;99.90;;;;;;5053473;28;20209;-63
2022/09/12 12:32:21;;;;;;;3.10;2.60;;;23.70;99.90;;;;;;5053144;28;20206;-63
2022/09/12 12:34:48;;;;;;;3.57;2.60;;;23.40;99.90;;;;;;5053627;28;20240;-62
2022/09/12 12:37:55;;;;;;;3.30;2.60;;;23.00;99.90;;;;;;5053404;28;20206;-62
2022/09/12 12:40:27;;;;;;;4.63;2.60;;;22.90;99.90;;;;;;5053456;28;20278;-61
2022/09/12 12:43:24;;;;;;;3.00;2.60;;;22.90;99.90;;;;;;5053402;28;20268;-61
2022/09/12 12:46:11;;;;;;;2.50;2.20;;;23.30;99.90;;;;;;5053372;28;20233;-62
2022/09/12 12:48:51;;;;;;;3.17;2.50;;;23.60;99.90;;;;;;5052729;28;20667;-62
2022/09/12 12:51:31;;;;;;;2.63;2.37;;;23.80;99.90;;;;;;5053396;28;20206;-62
2022/09/12 12:54:00;;;;;;;2.70;2.47;;;24.00;99.90;;;;;;5053021;28;20225;-62
2022/09/12 12:56:37;;;;;;;2.50;2.30;;;24.10;99.90;;;;;;5052652;28;20378;-62